createdAt,value
2023-02-24T00:00:33.466Z,507.00
2023-02-24T00:01:23.542Z,514.00
2023-02-24T00:02:13.631Z,533.00
2023-02-24T00:03:03.939Z,519.00
2023-02-24T00:03:53.933Z,512.00
2023-02-24T00:04:44.015Z,519.00
2023-02-24T00:05:34.032Z,532.00
2023-02-24T00:06:24.103Z,517.00
2023-02-24T00:07:14.173Z,525.00
2023-02-24T00:08:04.251Z,522.00
2023-02-24T00:08:54.312Z,528.00
2023-02-24T00:09:44.391Z,529.00
2023-02-24T00:10:34.417Z,521.00
2023-02-24T00:11:24.506Z,520.00
2023-02-24T00:12:14.647Z,517.00
2023-02-24T00:13:04.720Z,533.00
2023-02-24T00:13:54.802Z,533.00
2023-02-24T00:14:45.141Z,530.00
2023-02-24T00:15:35.153Z,507.00
2023-02-24T00:16:25.349Z,516.00
2023-02-24T00:17:15.370Z,527.00
2023-02-24T00:18:05.345Z,528.00
2023-02-24T00:18:55.411Z,527.00
2023-02-24T00:19:45.497Z,542.00
2023-02-24T00:20:35.511Z,540.00
2023-02-24T00:21:25.590Z,538.00
2023-02-24T00:22:15.622Z,538.00
2023-02-24T00:23:05.700Z,542.00
2023-02-24T00:23:55.975Z,543.00
2023-02-24T00:24:46.052Z,539.00
2023-02-24T00:25:36.084Z,530.00
2023-02-24T00:26:26.412Z,525.00
2023-02-24T00:27:16.464Z,529.00
2023-02-24T00:28:06.545Z,527.00
2023-02-24T00:28:56.805Z,526.00
2023-02-24T00:29:46.919Z,525.00
2023-02-24T00:30:36.917Z,529.00
2023-02-24T00:31:27.382Z,521.00
2023-02-24T00:32:17.541Z,520.00
2023-02-24T00:33:07.375Z,526.00
2023-02-24T00:33:57.372Z,516.00
2023-02-24T00:34:47.447Z,505.00
2023-02-24T00:35:37.465Z,519.00
2023-02-24T00:36:27.543Z,525.00
2023-02-24T00:37:17.561Z,525.00
2023-02-24T00:38:07.640Z,510.00
2023-02-24T00:38:57.698Z,515.00
2023-02-24T00:39:47.802Z,513.00
2023-02-24T00:40:38.076Z,509.00
2023-02-24T00:41:28.128Z,507.00
2023-02-24T00:42:18.200Z,520.00
2023-02-24T00:43:08.278Z,518.00
2023-02-24T00:43:58.291Z,507.00
2023-02-24T00:44:48.381Z,512.00
2023-02-24T00:45:38.412Z,511.00
2023-02-24T00:46:28.515Z,505.00
2023-02-24T00:47:18.510Z,521.00
2023-02-24T00:48:08.580Z,523.00
2023-02-24T00:48:58.632Z,523.00
2023-02-24T00:49:48.973Z,525.00
2023-02-24T00:50:38.957Z,518.00
2023-02-24T00:51:29.028Z,515.00
2023-02-24T00:52:19.363Z,509.00
2023-02-24T00:53:09.412Z,515.00
2023-02-24T00:53:59.473Z,516.00
2023-02-24T00:54:49.939Z,524.00
2023-02-24T00:55:39.877Z,511.00
2023-02-24T00:56:29.938Z,520.00
2023-02-24T00:57:19.964Z,516.00
2023-02-24T00:58:10.024Z,537.00
2023-02-24T00:59:00.110Z,537.00
2023-02-24T00:59:50.186Z,538.00
2023-02-24T01:00:40.237Z,538.00
2023-02-24T01:01:30.329Z,536.00
2023-02-24T01:02:20.367Z,536.00
2023-02-24T01:03:10.435Z,534.00
2023-02-24T01:04:00.627Z,526.00
2023-02-24T01:04:50.636Z,525.00
2023-02-24T01:05:40.659Z,514.00
2023-02-24T01:06:30.735Z,518.00
2023-02-24T01:07:20.755Z,525.00
2023-02-24T01:08:10.820Z,523.00
2023-02-24T01:09:00.883Z,523.00
2023-02-24T01:09:50.974Z,519.00
2023-02-24T01:10:40.996Z,521.00
2023-02-24T01:11:31.073Z,517.00
2023-02-24T01:12:21.134Z,509.00
2023-02-24T01:13:11.425Z,509.00
2023-02-24T01:14:01.494Z,521.00
2023-02-24T01:14:51.578Z,524.00
2023-02-24T01:15:41.878Z,533.00
2023-02-24T01:16:31.960Z,525.00
2023-02-24T01:17:22.010Z,520.00
2023-02-24T01:18:12.323Z,516.00
2023-02-24T01:19:02.388Z,522.00
2023-02-24T01:19:52.481Z,528.00
2023-02-24T01:20:42.753Z,528.00
2023-02-24T01:21:32.822Z,514.00
2023-02-24T01:22:22.892Z,520.00
2023-02-24T01:23:13.228Z,530.00
2023-02-24T01:24:03.292Z,534.00
2023-02-24T01:24:53.377Z,537.00
2023-02-24T01:25:44.134Z,539.00
2023-02-24T01:26:33.689Z,531.00
2023-02-24T01:27:23.760Z,548.00
2023-02-24T01:28:13.822Z,536.00
2023-02-24T01:29:03.858Z,528.00
2023-02-24T01:29:53.966Z,519.00
2023-02-24T01:30:44.008Z,522.00
2023-02-24T01:31:34.241Z,527.00
2023-02-24T01:32:24.474Z,520.00
2023-02-24T01:33:14.227Z,519.00
2023-02-24T01:34:04.222Z,510.00
2023-02-24T01:34:54.478Z,519.00
2023-02-24T01:35:44.501Z,521.00
2023-02-24T01:36:34.572Z,520.00
2023-02-24T01:37:24.898Z,522.00
2023-02-24T01:38:14.998Z,528.00
2023-02-24T01:39:05.016Z,516.00
2023-02-24T01:39:55.368Z,515.00
2023-02-24T01:40:45.395Z,518.00
2023-02-24T01:41:35.479Z,527.00
2023-02-24T01:42:25.505Z,533.00
2023-02-24T01:43:15.610Z,527.00
2023-02-24T01:44:05.624Z,523.00
2023-02-24T01:44:55.714Z,535.00
2023-02-24T01:45:45.759Z,534.00
2023-02-24T01:46:35.853Z,527.00
2023-02-24T01:47:25.828Z,526.00
2023-02-24T01:48:15.935Z,533.00
2023-02-24T01:49:06.181Z,526.00
2023-02-24T01:49:56.273Z,526.00
2023-02-24T01:50:46.298Z,517.00
2023-02-24T01:51:36.387Z,521.00
2023-02-24T01:52:26.423Z,522.00
2023-02-24T01:53:16.487Z,520.00
2023-02-24T01:54:06.521Z,514.00
2023-02-24T01:54:56.601Z,518.00
2023-02-24T01:55:46.641Z,526.00
2023-02-24T01:56:36.718Z,521.00
2023-02-24T01:57:26.736Z,520.00
2023-02-24T01:58:17.078Z,525.00
2023-02-24T01:59:07.098Z,535.00
2023-02-24T01:59:57.190Z,532.00
2023-02-24T02:00:47.219Z,538.00
2023-02-24T02:01:37.362Z,536.00
2023-02-24T02:02:27.469Z,519.00
2023-02-24T02:03:17.395Z,521.00
2023-02-24T02:04:07.474Z,533.00
2023-02-24T02:04:57.533Z,532.00
2023-02-24T02:05:47.563Z,528.00
2023-02-24T02:06:37.638Z,525.00
2023-02-24T02:07:27.881Z,519.00
2023-02-24T02:08:17.910Z,514.00
2023-02-24T02:09:07.980Z,523.00
2023-02-24T02:09:58.324Z,529.00
2023-02-24T02:10:48.346Z,535.00
2023-02-24T02:11:38.425Z,523.00
2023-02-24T02:12:28.750Z,524.00
2023-02-24T02:13:18.929Z,515.00
2023-02-24T02:14:08.857Z,516.00
2023-02-24T02:14:59.208Z,516.00
2023-02-24T02:15:49.260Z,519.00
2023-02-24T02:16:39.304Z,512.00
2023-02-24T02:17:29.623Z,521.00
2023-02-24T02:18:19.706Z,516.00
2023-02-24T02:19:09.797Z,516.00
2023-02-24T02:20:00.103Z,512.00
2023-02-24T02:20:50.101Z,510.00
2023-02-24T02:21:40.193Z,509.00
2023-02-24T02:22:30.493Z,517.00
2023-02-24T02:23:20.568Z,522.00
2023-02-24T02:24:10.628Z,517.00
2023-02-24T02:25:00.934Z,517.00
2023-02-24T02:25:50.954Z,520.00
2023-02-24T02:26:41.041Z,508.00
2023-02-24T02:27:31.350Z,503.00
2023-02-24T02:28:21.426Z,501.00
2023-02-24T02:29:11.482Z,514.00
2023-02-24T02:30:01.792Z,519.00
2023-02-24T02:30:51.846Z,528.00
2023-02-24T02:31:42.110Z,527.00
2023-02-24T02:32:32.256Z,522.00
2023-02-24T02:33:21.987Z,526.00
2023-02-24T02:34:12.079Z,514.00
2023-02-24T02:35:02.162Z,512.00
2023-02-24T02:35:52.179Z,510.00
2023-02-24T02:36:42.260Z,529.00
2023-02-24T02:37:32.289Z,517.00
2023-02-24T02:38:22.348Z,518.00
2023-02-24T02:39:12.413Z,510.00
2023-02-24T02:40:02.526Z,517.00
2023-02-24T02:40:52.531Z,531.00
2023-02-24T02:41:42.598Z,524.00
2023-02-24T02:42:32.662Z,522.00
2023-02-24T02:43:22.911Z,521.00
2023-02-24T02:44:12.961Z,518.00
2023-02-24T02:45:03.036Z,536.00
2023-02-24T02:45:53.098Z,539.00
2023-02-24T02:46:43.135Z,539.00
2023-02-24T02:47:33.205Z,553.00
2023-02-24T02:48:23.271Z,545.00
2023-02-24T02:49:13.355Z,540.00
2023-02-24T02:50:03.415Z,548.00
2023-02-24T02:50:53.435Z,556.00
2023-02-24T02:51:43.486Z,571.00
2023-02-24T02:52:33.727Z,572.00
2023-02-24T02:53:23.804Z,563.00
2023-02-24T02:54:13.828Z,558.00
2023-02-24T02:55:04.176Z,560.00
2023-02-24T02:55:54.206Z,546.00
2023-02-24T02:56:44.274Z,553.00
2023-02-24T02:57:34.598Z,574.00
2023-02-24T02:58:24.663Z,592.00
2023-02-24T02:59:14.732Z,589.00
2023-02-24T03:00:05.049Z,578.00
2023-02-24T03:00:55.155Z,569.00
2023-02-24T03:01:45.151Z,575.00
2023-02-24T03:02:35.461Z,587.00
2023-02-24T03:03:25.544Z,584.00
2023-02-24T03:04:15.653Z,583.00
2023-02-24T03:05:05.768Z,566.00
2023-02-24T03:05:55.674Z,567.00
2023-02-24T03:06:45.743Z,570.00
2023-02-24T03:07:35.806Z,592.00
2023-02-24T03:08:25.890Z,598.00
2023-02-24T03:09:16.211Z,600.00
2023-02-24T03:10:06.010Z,596.00
2023-02-24T03:10:56.028Z,597.00
2023-02-24T03:11:46.100Z,615.00
2023-02-24T03:12:36.166Z,606.00
2023-02-24T03:13:26.235Z,606.00
2023-02-24T03:14:16.299Z,598.00
2023-02-24T03:15:06.397Z,599.00
2023-02-24T03:15:56.421Z,602.00
2023-02-24T03:16:46.535Z,607.00
2023-02-24T03:17:36.546Z,590.00
2023-02-24T03:18:26.836Z,576.00
2023-02-24T03:19:16.894Z,575.00
2023-02-24T03:20:07.040Z,577.00
2023-02-24T03:20:57.304Z,581.00
2023-02-24T03:21:47.323Z,579.00
2023-02-24T03:22:37.384Z,572.00
2023-02-24T03:23:27.453Z,584.00
2023-02-24T03:24:17.491Z,579.00
2023-02-24T03:25:07.586Z,582.00
2023-02-24T03:25:57.610Z,584.00
2023-02-24T03:26:47.685Z,572.00
2023-02-24T03:27:37.736Z,574.00
2023-02-24T03:28:27.806Z,587.00
2023-02-24T03:29:17.873Z,583.00
2023-02-24T03:30:08.189Z,576.00
2023-02-24T03:30:58.244Z,583.00
2023-02-24T03:31:48.410Z,584.00
2023-02-24T03:32:38.474Z,580.00
2023-02-24T03:33:28.391Z,571.00
2023-02-24T03:34:18.471Z,562.00
2023-02-24T03:35:08.550Z,558.00
2023-02-24T03:35:58.586Z,558.00
2023-02-24T03:36:48.780Z,554.00
2023-02-24T03:37:38.861Z,561.00
2023-02-24T03:38:28.877Z,553.00
2023-02-24T03:39:19.219Z,553.00
2023-02-24T03:40:09.288Z,554.00
2023-02-24T03:40:59.305Z,563.00
2023-02-24T03:41:49.380Z,559.00
2023-02-24T03:42:39.413Z,562.00
2023-02-24T03:43:29.488Z,556.00
2023-02-24T03:44:19.553Z,550.00
2023-02-24T03:45:09.640Z,553.00
2023-02-24T03:45:59.681Z,561.00
2023-02-24T03:46:49.744Z,565.00
2023-02-24T03:47:39.804Z,561.00
2023-02-24T03:48:30.092Z,552.00
2023-02-24T03:49:20.125Z,565.00
2023-02-24T03:50:10.225Z,566.00
2023-02-24T03:51:00.265Z,564.00
2023-02-24T03:51:50.318Z,558.00
2023-02-24T03:52:40.366Z,563.00
2023-02-24T03:53:30.439Z,562.00
2023-02-24T03:54:20.515Z,551.00
2023-02-24T03:55:10.587Z,544.00
2023-02-24T03:56:00.638Z,557.00
2023-02-24T03:56:50.694Z,555.00
2023-02-24T03:57:40.888Z,550.00
2023-02-24T03:58:30.958Z,554.00
2023-02-24T03:59:21.028Z,561.00
2023-02-24T04:00:11.327Z,564.00
2023-02-24T04:01:01.344Z,556.00
2023-02-24T04:01:51.425Z,562.00
2023-02-24T04:02:41.485Z,565.00
2023-02-24T04:03:31.507Z,563.00
2023-02-24T04:04:21.655Z,567.00
2023-02-24T04:05:11.635Z,570.00
2023-02-24T04:06:01.667Z,574.00
2023-02-24T04:06:51.746Z,557.00
2023-02-24T04:07:41.792Z,562.00
2023-02-24T04:08:31.864Z,563.00
2023-02-24T04:09:22.166Z,552.00
2023-02-24T04:10:12.253Z,549.00
2023-02-24T04:11:02.262Z,557.00
2023-02-24T04:11:52.345Z,565.00
2023-02-24T04:12:42.421Z,563.00
2023-02-24T04:13:32.423Z,561.00
2023-02-24T04:14:22.487Z,556.00
2023-02-24T04:15:12.583Z,550.00
2023-02-24T04:16:02.689Z,547.00
2023-02-24T04:16:52.666Z,542.00
2023-02-24T04:17:42.733Z,548.00
2023-02-24T04:18:33.007Z,554.00
2023-02-24T04:19:23.074Z,559.00
2023-02-24T04:20:13.162Z,551.00
2023-02-24T04:21:03.459Z,563.00
2023-02-24T04:21:53.515Z,570.00
2023-02-24T04:22:43.607Z,570.00
2023-02-24T04:23:33.662Z,557.00
2023-02-24T04:24:23.685Z,547.00
2023-02-24T04:25:13.908Z,548.00
2023-02-24T04:26:03.802Z,546.00
2023-02-24T04:26:53.886Z,551.00
2023-02-24T04:27:43.936Z,557.00
2023-02-24T04:28:34.021Z,543.00
2023-02-24T04:29:24.087Z,544.00
2023-02-24T04:30:14.336Z,545.00
2023-02-24T04:31:04.526Z,540.00
2023-02-24T04:31:54.586Z,549.00
2023-02-24T04:32:44.581Z,552.00
2023-02-24T04:33:34.548Z,553.00
2023-02-24T04:34:24.582Z,552.00
2023-02-24T04:35:14.660Z,542.00
2023-02-24T04:36:04.686Z,535.00
2023-02-24T04:36:54.804Z,547.00
2023-02-24T04:37:44.831Z,554.00
2023-02-24T04:38:34.940Z,556.00
2023-02-24T04:39:24.945Z,559.00
2023-02-24T04:40:15.028Z,570.00
2023-02-24T04:41:05.069Z,572.00
2023-02-24T04:41:55.132Z,572.00
2023-02-24T04:42:45.197Z,570.00
2023-02-24T04:43:35.275Z,563.00
2023-02-24T04:44:25.340Z,571.00
2023-02-24T04:45:15.447Z,563.00
2023-02-24T04:46:05.652Z,564.00
2023-02-24T04:46:55.672Z,572.00
2023-02-24T04:47:45.701Z,568.00
2023-02-24T04:48:35.784Z,575.00
2023-02-24T04:49:25.846Z,566.00
2023-02-24T04:50:15.933Z,579.00
2023-02-24T04:51:05.986Z,584.00
2023-02-24T04:51:56.138Z,573.00
2023-02-24T04:52:46.076Z,567.00
2023-02-24T04:53:36.155Z,566.00
2023-02-24T04:54:26.214Z,559.00
2023-02-24T04:55:16.447Z,575.00
2023-02-24T04:56:06.471Z,578.00
2023-02-24T04:56:58.375Z,575.00
2023-02-24T04:57:46.588Z,575.00
2023-02-24T04:58:36.673Z,572.00
2023-02-24T04:59:26.699Z,577.00
2023-02-24T05:00:16.786Z,581.00
2023-02-24T05:01:06.806Z,579.00
2023-02-24T05:01:56.880Z,572.00
2023-02-24T05:02:46.945Z,574.00
2023-02-24T05:03:37.029Z,571.00
2023-02-24T05:04:27.115Z,568.00
2023-02-24T05:05:17.176Z,574.00
2023-02-24T05:06:07.374Z,578.00
2023-02-24T05:06:57.454Z,566.00
2023-02-24T05:07:47.518Z,568.00
2023-02-24T05:08:37.593Z,566.00
2023-02-24T05:09:27.662Z,570.00
2023-02-24T05:10:17.773Z,569.00
2023-02-24T05:11:07.776Z,565.00
2023-02-24T05:11:57.879Z,570.00
2023-02-24T05:12:47.889Z,574.00
2023-02-24T05:13:37.995Z,577.00
2023-02-24T05:14:27.994Z,573.00
2023-02-24T05:15:18.258Z,573.00
2023-02-24T05:16:08.404Z,577.00
2023-02-24T05:16:58.350Z,573.00
2023-02-24T05:17:48.382Z,579.00
2023-02-24T05:18:38.458Z,569.00
2023-02-24T05:19:28.533Z,565.00
2023-02-24T05:20:18.621Z,569.00
2023-02-24T05:21:08.646Z,575.00
2023-02-24T05:21:58.721Z,584.00
2023-02-24T05:22:48.753Z,576.00
2023-02-24T05:23:38.826Z,577.00
2023-02-24T05:24:29.116Z,578.00
2023-02-24T05:25:19.159Z,578.00
2023-02-24T05:26:09.209Z,566.00
2023-02-24T05:26:59.514Z,573.00
2023-02-24T05:27:49.544Z,568.00
2023-02-24T05:28:39.619Z,555.00
2023-02-24T05:29:29.644Z,552.00
2023-02-24T05:30:19.770Z,554.00
2023-02-24T05:31:09.919Z,548.00
2023-02-24T05:32:00.171Z,554.00
2023-02-24T05:32:49.922Z,550.00
2023-02-24T05:33:39.983Z,554.00
2023-02-24T05:34:30.037Z,548.00
2023-02-24T05:35:20.147Z,559.00
2023-02-24T05:36:10.430Z,554.00
2023-02-24T05:37:00.493Z,553.00
2023-02-24T05:37:50.582Z,564.00
2023-02-24T05:38:40.877Z,556.00
2023-02-24T05:39:30.909Z,553.00
2023-02-24T05:40:20.988Z,558.00
2023-02-24T05:41:11.013Z,563.00
2023-02-24T05:42:01.110Z,566.00
2023-02-24T05:42:51.161Z,561.00
2023-02-24T05:43:41.234Z,560.00
2023-02-24T05:44:31.267Z,559.00
2023-02-24T05:45:21.363Z,558.00
2023-02-24T05:46:11.396Z,566.00
2023-02-24T05:47:01.466Z,562.00
2023-02-24T05:47:51.684Z,570.00
2023-02-24T05:48:41.769Z,565.00
2023-02-24T05:49:31.793Z,564.00
2023-02-24T05:50:22.143Z,565.00
2023-02-24T05:51:12.176Z,566.00
2023-02-24T05:52:02.252Z,563.00
2023-02-24T05:52:52.312Z,568.00
2023-02-24T05:53:42.416Z,562.00
2023-02-24T05:54:32.430Z,549.00
2023-02-24T05:55:22.524Z,557.00
2023-02-24T05:56:12.543Z,558.00
2023-02-24T05:57:02.615Z,558.00
2023-02-24T05:57:52.666Z,559.00
2023-02-24T05:58:42.726Z,557.00
2023-02-24T05:59:32.958Z,553.00
2023-02-24T06:00:22.828Z,556.00
2023-02-24T06:01:12.851Z,562.00
2023-02-24T06:02:02.984Z,565.00
2023-02-24T06:02:53.105Z,553.00
2023-02-24T06:03:43.040Z,551.00
2023-02-24T06:04:33.070Z,556.00
2023-02-24T06:05:23.182Z,547.00
2023-02-24T06:06:13.198Z,553.00
2023-02-24T06:07:03.321Z,554.00
2023-02-24T06:07:53.359Z,547.00
2023-02-24T06:08:43.437Z,537.00
2023-02-24T06:09:33.474Z,544.00
2023-02-24T06:10:23.525Z,537.00
2023-02-24T06:11:13.556Z,540.00
2023-02-24T06:12:03.709Z,545.00
2023-02-24T06:12:55.191Z,532.00
2023-02-24T06:13:43.848Z,543.00
2023-02-24T06:14:33.855Z,548.00
2023-02-24T06:15:23.959Z,552.00
2023-02-24T06:16:13.996Z,541.00
2023-02-24T06:17:04.071Z,537.00
2023-02-24T06:17:54.087Z,538.00
2023-02-24T06:18:44.164Z,542.00
2023-02-24T06:19:34.202Z,540.00
2023-02-24T06:20:24.301Z,541.00
2023-02-24T06:21:14.334Z,538.00
2023-02-24T06:22:04.397Z,535.00
2023-02-24T06:22:54.638Z,532.00
2023-02-24T06:23:44.722Z,546.00
2023-02-24T06:24:34.751Z,538.00
2023-02-24T06:25:25.124Z,537.00
2023-02-24T06:26:15.141Z,529.00
2023-02-24T06:27:05.237Z,533.00
2023-02-24T06:27:55.251Z,533.00
2023-02-24T06:28:45.329Z,525.00
2023-02-24T06:29:35.391Z,530.00
2023-02-24T06:30:25.509Z,531.00
2023-02-24T06:31:15.508Z,523.00
2023-02-24T06:32:05.672Z,532.00
2023-02-24T06:32:55.663Z,532.00
2023-02-24T06:33:45.691Z,533.00
2023-02-24T06:34:35.753Z,535.00
2023-02-24T06:35:25.855Z,536.00
2023-02-24T06:36:15.871Z,534.00
2023-02-24T06:37:05.950Z,544.00
2023-02-24T06:37:56.009Z,540.00
2023-02-24T06:38:46.049Z,546.00
2023-02-24T06:39:36.986Z,529.00
2023-02-24T06:40:26.331Z,532.00
2023-02-24T06:41:16.476Z,537.00
2023-02-24T06:42:06.421Z,541.00
2023-02-24T06:42:56.468Z,531.00
2023-02-24T06:43:46.539Z,541.00
2023-02-24T06:44:36.564Z,544.00
2023-02-24T06:45:26.695Z,531.00
2023-02-24T06:46:16.783Z,546.00
2023-02-24T06:47:06.758Z,540.00
2023-02-24T06:47:56.791Z,537.00
2023-02-24T06:48:47.107Z,539.00
2023-02-24T06:49:37.181Z,542.00
2023-02-24T06:50:27.287Z,535.00
2023-02-24T06:51:17.573Z,538.00
2023-02-24T06:52:07.607Z,542.00
2023-02-24T06:52:57.670Z,543.00
2023-02-24T06:53:48.002Z,552.00
2023-02-24T06:54:38.044Z,552.00
2023-02-24T06:55:28.255Z,551.00
2023-02-24T06:56:18.433Z,543.00
2023-02-24T06:57:08.525Z,542.00
2023-02-24T06:57:58.626Z,546.00
2023-02-24T06:58:48.922Z,543.00
2023-02-24T06:59:38.951Z,542.00
2023-02-24T07:00:29.074Z,544.00
2023-02-24T07:01:19.502Z,549.00
2023-02-24T07:02:09.144Z,552.00
2023-02-24T07:02:59.381Z,537.00
2023-02-24T07:03:49.470Z,546.00
2023-02-24T07:04:39.513Z,547.00
2023-02-24T07:05:29.553Z,545.00
2023-02-24T07:06:19.584Z,550.00
2023-02-24T07:07:09.659Z,545.00
2023-02-24T07:07:59.699Z,542.00
2023-02-24T07:08:49.736Z,537.00
2023-02-24T07:09:39.777Z,539.00
2023-02-24T07:10:29.858Z,545.00
2023-02-24T07:11:20.250Z,540.00
2023-02-24T07:12:09.933Z,544.00
2023-02-24T07:12:59.965Z,557.00
2023-02-24T07:13:50.051Z,550.00
2023-02-24T07:14:40.081Z,542.00
2023-02-24T07:15:30.139Z,552.00
2023-02-24T07:16:20.347Z,544.00
2023-02-24T07:17:10.271Z,540.00
2023-02-24T07:18:00.277Z,545.00
2023-02-24T07:18:50.317Z,549.00
2023-02-24T07:19:40.363Z,545.00
2023-02-24T07:20:30.465Z,549.00
2023-02-24T07:21:20.881Z,549.00
2023-02-24T07:22:10.565Z,544.00
2023-02-24T07:23:00.844Z,548.00
2023-02-24T07:23:50.901Z,541.00
2023-02-24T07:24:40.913Z,543.00
2023-02-24T07:25:31.280Z,546.00
2023-02-24T07:26:21.310Z,550.00
2023-02-24T07:27:11.347Z,544.00
2023-02-24T07:28:01.377Z,541.00
2023-02-24T07:28:51.459Z,532.00
2023-02-24T07:29:41.502Z,546.00
2023-02-24T07:30:31.769Z,537.00
2023-02-24T07:31:22.046Z,535.00
2023-02-24T07:32:11.875Z,541.00
2023-02-24T07:33:01.758Z,538.00
2023-02-24T07:33:51.794Z,536.00
2023-02-24T07:34:41.815Z,539.00
2023-02-24T07:35:31.917Z,545.00
2023-02-24T07:36:21.952Z,542.00
2023-02-24T07:37:12.029Z,543.00
2023-02-24T07:38:02.151Z,539.00
2023-02-24T07:38:52.261Z,546.00
2023-02-24T07:39:42.305Z,536.00
2023-02-24T07:40:32.393Z,531.00
2023-02-24T07:41:23.002Z,538.00
2023-02-24T07:42:12.471Z,538.00
2023-02-24T07:43:02.500Z,537.00
2023-02-24T07:43:52.584Z,542.00
2023-02-24T07:44:42.608Z,545.00
2023-02-24T07:45:32.755Z,550.00
2023-02-24T07:46:22.808Z,550.00
2023-02-24T07:47:12.779Z,546.00
2023-02-24T07:48:02.832Z,544.00
2023-02-24T07:48:52.898Z,550.00
2023-02-24T07:49:42.914Z,547.00
2023-02-24T07:50:33.134Z,548.00
2023-02-24T07:51:23.290Z,544.00
2023-02-24T07:52:13.178Z,541.00
2023-02-24T07:53:03.186Z,541.00
2023-02-24T07:53:53.266Z,547.00
2023-02-24T07:54:43.319Z,540.00
2023-02-24T07:55:33.403Z,537.00
2023-02-24T07:56:23.608Z,542.00
2023-02-24T07:57:14.465Z,546.00
2023-02-24T07:58:03.680Z,548.00
2023-02-24T07:58:53.771Z,551.00
2023-02-24T07:59:43.805Z,545.00
2023-02-24T08:00:33.911Z,540.00
2023-02-24T08:01:23.955Z,538.00
2023-02-24T08:02:14.185Z,549.00
2023-02-24T08:03:04.139Z,548.00
2023-02-24T08:03:54.245Z,546.00
2023-02-24T08:04:44.271Z,547.00
2023-02-24T08:05:34.371Z,540.00
2023-02-24T08:06:24.366Z,543.00
2023-02-24T08:07:14.754Z,527.00
2023-02-24T08:08:04.459Z,536.00
2023-02-24T08:08:54.558Z,542.00
2023-02-24T08:09:44.593Z,540.00
2023-02-24T08:10:34.667Z,537.00
2023-02-24T08:11:24.705Z,537.00
2023-02-24T08:12:14.736Z,539.00
2023-02-24T08:13:04.784Z,542.00
2023-02-24T08:13:54.830Z,544.00
2023-02-24T08:14:44.845Z,545.00
2023-02-24T08:15:34.988Z,549.00
2023-02-24T08:16:24.989Z,542.00
2023-02-24T08:17:15.067Z,544.00
2023-02-24T08:18:05.102Z,536.00
2023-02-24T08:18:55.437Z,539.00
2023-02-24T08:19:45.513Z,538.00
2023-02-24T08:20:35.575Z,543.00
2023-02-24T08:21:25.607Z,538.00
2023-02-24T08:22:15.645Z,548.00
2023-02-24T08:23:05.674Z,539.00
2023-02-24T08:23:55.762Z,543.00
2023-02-24T08:24:45.790Z,539.00
2023-02-24T08:25:36.352Z,540.00
2023-02-24T08:26:25.969Z,547.00
2023-02-24T08:27:15.988Z,547.00
2023-02-24T08:28:08.790Z,547.00
2023-02-24T08:28:56.390Z,542.00
2023-02-24T08:29:46.414Z,539.00
2023-02-24T08:30:36.527Z,536.00
2023-02-24T08:31:26.946Z,535.00
2023-02-24T08:32:19.048Z,535.00
2023-02-24T08:33:06.642Z,535.00
2023-02-24T08:33:56.721Z,527.00
2023-02-24T08:34:46.750Z,537.00
2023-02-24T08:35:36.828Z,540.00
2023-02-24T08:36:26.835Z,542.00
2023-02-24T08:37:16.929Z,542.00
2023-02-24T08:38:07.093Z,541.00
2023-02-24T08:38:57.122Z,534.00
2023-02-24T08:39:47.165Z,538.00
2023-02-24T08:40:37.286Z,539.00
2023-02-24T08:41:27.286Z,543.00
2023-02-24T08:42:17.364Z,542.00
2023-02-24T08:43:07.396Z,541.00
2023-02-24T08:43:57.475Z,541.00
2023-02-24T08:44:47.516Z,541.00
2023-02-24T08:45:37.556Z,526.00
2023-02-24T08:46:27.595Z,535.00
2023-02-24T08:47:17.629Z,535.00
2023-02-24T08:48:07.679Z,538.00
2023-02-24T08:48:57.752Z,538.00
2023-02-24T08:49:47.802Z,540.00
2023-02-24T08:50:37.896Z,539.00
2023-02-24T08:51:27.947Z,533.00
2023-02-24T08:52:18.001Z,539.00
2023-02-24T08:53:08.033Z,538.00
2023-02-24T08:53:58.293Z,540.00
2023-02-24T08:54:48.331Z,543.00
2023-02-24T08:55:38.400Z,543.00
2023-02-24T08:56:28.427Z,545.00
2023-02-24T08:57:18.516Z,535.00
2023-02-24T08:58:08.541Z,539.00
2023-02-24T08:58:58.616Z,534.00
2023-02-24T08:59:48.684Z,532.00
2023-02-24T09:00:38.845Z,544.00
2023-02-24T09:01:28.797Z,536.00
2023-02-24T09:02:18.925Z,537.00
2023-02-24T09:03:09.090Z,523.00
2023-02-24T09:03:59.213Z,530.00
2023-02-24T09:04:49.284Z,526.00
2023-02-24T09:05:39.278Z,527.00
2023-02-24T09:06:29.293Z,527.00
2023-02-24T09:07:19.486Z,534.00
2023-02-24T09:08:09.409Z,540.00
2023-02-24T09:08:59.487Z,546.00
2023-02-24T09:09:49.582Z,535.00
2023-02-24T09:10:39.965Z,532.00
2023-02-24T09:11:29.664Z,532.00
2023-02-24T09:12:19.959Z,528.00
2023-02-24T09:13:10.024Z,531.00
2023-02-24T09:14:00.121Z,536.00
2023-02-24T09:14:50.392Z,534.00
2023-02-24T09:15:40.485Z,532.00
2023-02-24T09:16:30.577Z,534.00
2023-02-24T09:17:20.780Z,526.00
2023-02-24T09:18:10.628Z,524.00
2023-02-24T09:19:00.722Z,522.00
2023-02-24T09:19:50.766Z,523.00
2023-02-24T09:20:40.879Z,517.00
2023-02-24T09:21:30.914Z,521.00
2023-02-24T09:22:21.732Z,520.00
2023-02-24T09:23:11.207Z,505.00
2023-02-24T09:24:01.270Z,517.00
2023-02-24T09:24:51.556Z,520.00
2023-02-24T09:25:41.702Z,518.00
2023-02-24T09:26:31.630Z,524.00
2023-02-24T09:27:21.672Z,522.00
2023-02-24T09:28:11.701Z,523.00
2023-02-24T09:29:01.775Z,525.00
2023-02-24T09:29:51.801Z,530.00
2023-02-24T09:30:41.947Z,523.00
2023-02-24T09:31:31.999Z,522.00
2023-02-24T09:32:22.172Z,529.00
2023-02-24T09:33:12.244Z,526.00
2023-02-24T09:34:02.096Z,532.00
2023-02-24T09:34:52.182Z,530.00
2023-02-24T09:35:42.264Z,530.00
2023-02-24T09:36:32.293Z,528.00
2023-02-24T09:37:22.374Z,530.00
2023-02-24T09:38:12.449Z,527.00
2023-02-24T09:39:02.548Z,523.00
2023-02-24T09:39:52.537Z,528.00
2023-02-24T09:40:42.839Z,521.00
2023-02-24T09:41:33.440Z,530.00
2023-02-24T09:42:22.912Z,535.00
2023-02-24T09:43:12.941Z,537.00
2023-02-24T09:44:03.031Z,524.00
2023-02-24T09:44:53.076Z,522.00
2023-02-24T09:45:43.246Z,523.00
2023-02-24T09:46:33.265Z,516.00
2023-02-24T09:47:23.216Z,518.00
2023-02-24T09:48:13.289Z,514.00
2023-02-24T09:49:03.366Z,517.00
2023-02-24T09:49:53.605Z,521.00
2023-02-24T09:51:01.660Z,525.00
2023-02-24T09:51:33.744Z,525.00
2023-02-24T09:52:23.805Z,518.00
2023-02-24T09:53:13.829Z,523.00
2023-02-24T09:54:03.895Z,523.00
2023-02-24T09:54:53.988Z,513.00
2023-02-24T09:55:44.050Z,525.00
2023-02-24T09:56:34.081Z,526.00
2023-02-24T09:57:24.230Z,526.00
2023-02-24T09:58:14.179Z,525.00
2023-02-24T09:59:04.252Z,527.00
2023-02-24T09:59:54.320Z,523.00
2023-02-24T10:00:44.586Z,517.00
2023-02-24T10:01:34.695Z,521.00
2023-02-24T10:02:24.732Z,513.00
2023-02-24T10:03:14.732Z,520.00
2023-02-24T10:04:14.878Z,516.00
2023-02-24T10:04:55.859Z,516.00
2023-02-24T10:05:44.937Z,514.00
2023-02-24T10:06:34.967Z,509.00
2023-02-24T10:07:25.036Z,516.00
2023-02-24T10:08:15.055Z,510.00
2023-02-24T10:09:05.132Z,517.00
2023-02-24T10:09:55.223Z,520.00
2023-02-24T10:10:45.292Z,517.00
2023-02-24T10:11:35.352Z,526.00
2023-02-24T10:12:25.406Z,516.00
2023-02-24T10:13:15.442Z,513.00
2023-02-24T10:14:05.699Z,522.00
2023-02-24T10:15:00.392Z,520.00
2023-02-24T10:15:45.848Z,520.00
2023-02-24T10:16:35.902Z,517.00
2023-02-24T10:17:25.980Z,521.00
2023-02-24T10:18:15.992Z,523.00
2023-02-24T10:19:06.062Z,515.00
2023-02-24T10:19:56.118Z,521.00
2023-02-24T10:20:46.282Z,517.00
2023-02-24T10:21:36.255Z,523.00
2023-02-24T10:22:26.326Z,523.00
2023-02-24T10:23:16.359Z,524.00
2023-02-24T10:24:06.428Z,523.00
2023-02-24T10:24:56.503Z,522.00